sensor_id;sensor_type;location;lat;lon;timestamp;P1;durP1;ratioP1;P2;durP2;ratioP2
3991;SDS011;2010;48.194;16.394;2023-03-01T00:01:18;36.03;;;23.60;;
3991;SDS011;2010;48.194;16.394;2023-03-01T00:03:50;37.50;;;22.67;;
3991;SDS011;2010;48.194;16.394;2023-03-01T00:06:32;36.53;;;24.30;;
3991;SDS011;2010;48.194;16.394;2023-03-01T00:09:06;37.00;;;22.47;;
3991;SDS011;2010;48.194;16.394;2023-03-01T00:11:37;43.37;;;22.80;;
3991;SDS011;2010;48.194;16.394;2023-03-01T00:14:14;38.47;;;22.70;;
3991;SDS011;2010;48.194;16.394;2023-03-01T00:16:47;37.03;;;21.97;;
3991;SDS011;2010;48.194;16.394;2023-03-01T00:19:18;34.30;;;21.47;;
3991;SDS011;2010;48.194;16.394;2023-03-01T00:21:54;38.57;;;23.00;;
3991;SDS011;2010;48.194;16.394;2023-03-01T00:24:27;36.30;;;22.60;;
3991;SDS011;2010;48.194;16.394;2023-03-01T00:27:04;43.30;;;23.93;;
3991;SDS011;2010;48.194;16.394;2023-03-01T00:29:35;32.73;;;22.10;;
3991;SDS011;2010;48.194;16.394;2023-03-01T00:32:04;38.73;;;24.93;;
3991;SDS011;2010;48.194;16.394;2023-03-01T00:34:34;35.93;;;21.83;;
3991;SDS011;2010;48.194;16.394;2023-03-01T00:37:09;40.43;;;22.20;;
3991;SDS011;2010;48.194;16.394;2023-03-01T00:39:49;36.73;;;24.13;;
3991;SDS011;2010;48.194;16.394;2023-03-01T00:42:25;43.17;;;22.47;;
3991;SDS011;2010;48.194;16.394;2023-03-01T00:44:57;38.37;;;23.17;;
3991;SDS011;2010;48.194;16.394;2023-03-01T00:47:28;40.73;;;22.60;;
3991;SDS011;2010;48.194;16.394;2023-03-01T00:49:57;39.93;;;22.77;;
3991;SDS011;2010;48.194;16.394;2023-03-01T00:52:33;36.33;;;22.70;;
3991;SDS011;2010;48.194;16.394;2023-03-01T00:55:06;39.27;;;22.70;;
3991;SDS011;2010;48.194;16.394;2023-03-01T00:57:46;42.37;;;23.93;;
3991;SDS011;2010;48.194;16.394;2023-03-01T01:00:15;36.33;;;23.80;;
3991;SDS011;2010;48.194;16.394;2023-03-01T01:02:50;40.40;;;24.43;;
3991;SDS011;2010;48.194;16.394;2023-03-01T01:05:24;37.80;;;24.27;;
3991;SDS011;2010;48.194;16.394;2023-03-01T01:07:57;37.00;;;24.17;;
3991;SDS011;2010;48.194;16.394;2023-03-01T01:10:27;41.70;;;24.97;;
3991;SDS011;2010;48.194;16.394;2023-03-01T01:12:58;44.63;;;25.50;;
3991;SDS011;2010;48.194;16.394;2023-03-01T01:15:33;43.07;;;23.47;;
3991;SDS011;2010;48.194;16.394;2023-03-01T01:18:02;36.43;;;23.70;;
3991;SDS011;2010;48.194;16.394;2023-03-01T01:20:35;35.57;;;23.80;;
3991;SDS011;2010;48.194;16.394;2023-03-01T01:23:06;39.73;;;24.20;;
3991;SDS011;2010;48.194;16.394;2023-03-01T01:25:36;39.13;;;23.83;;
3991;SDS011;2010;48.194;16.394;2023-03-01T01:28:05;41.73;;;24.50;;
3991;SDS011;2010;48.194;16.394;2023-03-01T01:30:34;40.13;;;23.50;;
3991;SDS011;2010;48.194;16.394;2023-03-01T01:33:03;35.80;;;23.77;;
3991;SDS011;2010;48.194;16.394;2023-03-01T01:35:34;38.90;;;23.73;;
3991;SDS011;2010;48.194;16.394;2023-03-01T01:38:09;45.47;;;25.53;;
3991;SDS011;2010;48.194;16.394;2023-03-01T01:40:45;43.30;;;25.50;;
3991;SDS011;2010;48.194;16.394;2023-03-01T01:43:23;43.30;;;25.10;;
3991;SDS011;2010;48.194;16.394;2023-03-01T01:45:57;45.90;;;25.20;;
3991;SDS011;2010;48.194;16.394;2023-03-01T01:48:37;45.47;;;24.93;;
3991;SDS011;2010;48.194;16.394;2023-03-01T01:51:10;39.63;;;24.80;;
3991;SDS011;2010;48.194;16.394;2023-03-01T01:53:50;42.40;;;24.80;;
3991;SDS011;2010;48.194;16.394;2023-03-01T01:56:24;40.73;;;24.30;;
3991;SDS011;2010;48.194;16.394;2023-03-01T01:58:55;44.37;;;26.00;;
3991;SDS011;2010;48.194;16.394;2023-03-01T02:01:27;42.80;;;25.47;;
3991;SDS011;2010;48.194;16.394;2023-03-01T02:04:04;46.83;;;26.90;;
3991;SDS011;2010;48.194;16.394;2023-03-01T02:06:36;39.47;;;24.33;;
3991;SDS011;2010;48.194;16.394;2023-03-01T02:09:18;46.43;;;25.20;;
3991;SDS011;2010;48.194;16.394;2023-03-01T02:11:50;37.50;;;24.33;;
3991;SDS011;2010;48.194;16.394;2023-03-01T02:14:18;40.60;;;25.07;;
3991;SDS011;2010;48.194;16.394;2023-03-01T02:16:47;39.03;;;23.97;;
3991;SDS011;2010;48.194;16.394;2023-03-01T02:19:22;41.93;;;24.37;;
3991;SDS011;2010;48.194;16.394;2023-03-01T02:22:06;42.93;;;24.50;;
3991;SDS011;2010;48.194;16.394;2023-03-01T02:24:53;49.20;;;26.40;;
3991;SDS011;2010;48.194;16.394;2023-03-01T02:27:48;38.77;;;24.77;;
3991;SDS011;2010;48.194;16.394;2023-03-01T02:30:25;45.10;;;25.67;;
3991;SDS011;2010;48.194;16.394;2023-03-01T02:32:56;44.53;;;26.70;;
3991;SDS011;2010;48.194;16.394;2023-03-01T02:35:32;41.97;;;25.67;;
3991;SDS011;2010;48.194;16.394;2023-03-01T02:38:03;41.40;;;25.97;;
3991;SDS011;2010;48.194;16.394;2023-03-01T02:40:38;40.90;;;26.97;;
3991;SDS011;2010;48.194;16.394;2023-03-01T02:43:10;43.07;;;27.53;;
3991;SDS011;2010;48.194;16.394;2023-03-01T02:45:52;45.60;;;26.53;;
3991;SDS011;2010;48.194;16.394;2023-03-01T02:48:42;46.07;;;28.10;;
3991;SDS011;2010;48.194;16.394;2023-03-01T02:51:25;42.30;;;25.73;;
3991;SDS011;2010;48.194;16.394;2023-03-01T02:54:17;44.23;;;27.20;;
3991;SDS011;2010;48.194;16.394;2023-03-01T02:56:51;40.50;;;24.17;;
3991;SDS011;2010;48.194;16.394;2023-03-01T02:59:24;38.27;;;25.67;;
3991;SDS011;2010;48.194;16.394;2023-03-01T03:02:19;43.87;;;26.20;;
3991;SDS011;2010;48.194;16.394;2023-03-01T03:05:10;39.93;;;24.50;;
3991;SDS011;2010;48.194;16.394;2023-03-01T03:07:45;45.77;;;26.73;;
3991;SDS011;2010;48.194;16.394;2023-03-01T03:10:26;39.70;;;25.77;;
3991;SDS011;2010;48.194;16.394;2023-03-01T03:13:01;42.20;;;25.70;;
3991;SDS011;2010;48.194;16.394;2023-03-01T03:15:34;44.43;;;25.33;;
3991;SDS011;2010;48.194;16.394;2023-03-01T03:18:09;39.10;;;25.87;;
3991;SDS011;2010;48.194;16.394;2023-03-01T03:20:46;40.20;;;26.10;;
3991;SDS011;2010;48.194;16.394;2023-03-01T03:23:20;41.77;;;27.60;;
3991;SDS011;2010;48.194;16.394;2023-03-01T03:25:50;44.37;;;25.63;;
3991;SDS011;2010;48.194;16.394;2023-03-01T03:28:27;39.43;;;24.30;;
3991;SDS011;2010;48.194;16.394;2023-03-01T03:30:56;45.27;;;26.70;;
3991;SDS011;2010;48.194;16.394;2023-03-01T03:33:38;46.27;;;26.57;;
3991;SDS011;2010;48.194;16.394;2023-03-01T03:36:09;42.10;;;26.13;;
3991;SDS011;2010;48.194;16.394;2023-03-01T03:38:41;44.03;;;26.57;;
3991;SDS011;2010;48.194;16.394;2023-03-01T03:41:12;40.93;;;27.50;;
3991;SDS011;2010;48.194;16.394;2023-03-01T03:43:42;42.17;;;27.00;;
3991;SDS011;2010;48.194;16.394;2023-03-01T03:46:12;47.73;;;27.57;;
3991;SDS011;2010;48.194;16.394;2023-03-01T03:48:57;42.93;;;27.67;;
3991;SDS011;2010;48.194;16.394;2023-03-01T03:51:28;42.40;;;27.00;;
3991;SDS011;2010;48.194;16.394;2023-03-01T03:54:02;51.70;;;27.50;;
3991;SDS011;2010;48.194;16.394;2023-03-01T03:56:39;49.07;;;28.13;;
3991;SDS011;2010;48.194;16.394;2023-03-01T03:59:08;40.33;;;25.90;;
3991;SDS011;2010;48.194;16.394;2023-03-01T04:01:45;44.97;;;27.53;;
3991;SDS011;2010;48.194;16.394;2023-03-01T04:04:36;51.73;;;28.40;;
3991;SDS011;2010;48.194;16.394;2023-03-01T04:07:07;44.97;;;28.07;;
3991;SDS011;2010;48.194;16.394;2023-03-01T04:09:41;42.90;;;26.87;;
3991;SDS011;2010;48.194;16.394;2023-03-01T04:12:12;46.30;;;25.80;;
3991;SDS011;2010;48.194;16.394;2023-03-01T04:14:52;46.80;;;27.27;;
3991;SDS011;2010;48.194;16.394;2023-03-01T04:17:28;51.70;;;28.97;;
3991;SDS011;2010;48.194;16.394;2023-03-01T04:20:02;45.47;;;28.13;;
3991;SDS011;2010;48.194;16.394;2023-03-01T04:22:36;49.90;;;28.33;;
3991;SDS011;2010;48.194;16.394;2023-03-01T04:25:08;50.67;;;26.83;;
3991;SDS011;2010;48.194;16.394;2023-03-01T04:27:41;42.60;;;26.93;;
3991;SDS011;2010;48.194;16.394;2023-03-01T04:30:13;53.73;;;28.30;;
3991;SDS011;2010;48.194;16.394;2023-03-01T04:32:50;47.03;;;28.20;;
3991;SDS011;2010;48.194;16.394;2023-03-01T04:35:35;48.27;;;27.57;;
3991;SDS011;2010;48.194;16.394;2023-03-01T04:38:09;44.00;;;28.00;;
3991;SDS011;2010;48.194;16.394;2023-03-01T04:40:38;49.40;;;28.33;;
3991;SDS011;2010;48.194;16.394;2023-03-01T04:43:09;49.77;;;28.03;;
3991;SDS011;2010;48.194;16.394;2023-03-01T04:45:42;47.97;;;26.97;;
3991;SDS011;2010;48.194;16.394;2023-03-01T04:48:18;50.63;;;28.73;;
3991;SDS011;2010;48.194;16.394;2023-03-01T04:53:49;45.97;;;27.87;;
3991;SDS011;2010;48.194;16.394;2023-03-01T04:56:24;52.83;;;29.50;;
3991;SDS011;2010;48.194;16.394;2023-03-01T04:58:58;46.70;;;28.03;;
3991;SDS011;2010;48.194;16.394;2023-03-01T05:01:33;48.40;;;26.53;;
3991;SDS011;2010;48.194;16.394;2023-03-01T05:04:02;46.33;;;27.77;;
3991;SDS011;2010;48.194;16.394;2023-03-01T05:06:37;43.67;;;28.23;;
3991;SDS011;2010;48.194;16.394;2023-03-01T05:09:13;46.27;;;27.70;;
3991;SDS011;2010;48.194;16.394;2023-03-01T05:11:43;46.10;;;29.00;;
3991;SDS011;2010;48.194;16.394;2023-03-01T05:14:19;45.27;;;27.57;;
3991;SDS011;2010;48.194;16.394;2023-03-01T05:16:52;45.43;;;26.33;;
3991;SDS011;2010;48.194;16.394;2023-03-01T05:19:22;47.37;;;28.00;;
3991;SDS011;2010;48.194;16.394;2023-03-01T05:21:56;41.53;;;27.33;;
3991;SDS011;2010;48.194;16.394;2023-03-01T05:24:34;45.83;;;26.93;;
3991;SDS011;2010;48.194;16.394;2023-03-01T05:27:11;46.17;;;27.53;;
3991;SDS011;2010;48.194;16.394;2023-03-01T05:29:42;45.40;;;27.00;;
3991;SDS011;2010;48.194;16.394;2023-03-01T05:32:15;47.57;;;28.13;;
3991;SDS011;2010;48.194;16.394;2023-03-01T05:34:49;46.53;;;27.53;;
3991;SDS011;2010;48.194;16.394;2023-03-01T05:37:34;51.43;;;27.40;;
3991;SDS011;2010;48.194;16.394;2023-03-01T05:40:05;43.10;;;28.30;;
3991;SDS011;2010;48.194;16.394;2023-03-01T05:42:44;44.53;;;26.50;;
3991;SDS011;2010;48.194;16.394;2023-03-01T05:45:20;43.80;;;26.30;;
3991;SDS011;2010;48.194;16.394;2023-03-01T05:47:51;37.97;;;24.70;;
3991;SDS011;2010;48.194;16.394;2023-03-01T05:50:23;42.23;;;26.23;;
3991;SDS011;2010;48.194;16.394;2023-03-01T05:53:05;44.53;;;25.87;;
3991;SDS011;2010;48.194;16.394;2023-03-01T05:55:35;43.73;;;27.13;;
3991;SDS011;2010;48.194;16.394;2023-03-01T05:58:06;49.97;;;27.53;;
3991;SDS011;2010;48.194;16.394;2023-03-01T06:00:43;47.10;;;28.07;;
3991;SDS011;2010;48.194;16.394;2023-03-01T06:03:16;40.17;;;26.70;;
3991;SDS011;2010;48.194;16.394;2023-03-01T06:05:47;47.53;;;28.13;;
3991;SDS011;2010;48.194;16.394;2023-03-01T06:08:21;45.50;;;26.90;;
3991;SDS011;2010;48.194;16.394;2023-03-01T06:10:54;41.40;;;25.23;;
3991;SDS011;2010;48.194;16.394;2023-03-01T06:13:26;44.63;;;27.60;;
3991;SDS011;2010;48.194;16.394;2023-03-01T06:15:57;48.23;;;28.67;;
3991;SDS011;2010;48.194;16.394;2023-03-01T06:18:29;48.77;;;26.93;;
3991;SDS011;2010;48.194;16.394;2023-03-01T06:21:06;43.77;;;26.67;;
3991;SDS011;2010;48.194;16.394;2023-03-01T06:23:48;49.30;;;28.37;;
3991;SDS011;2010;48.194;16.394;2023-03-01T06:26:17;51.43;;;27.47;;
3991;SDS011;2010;48.194;16.394;2023-03-01T06:28:50;44.77;;;26.63;;
3991;SDS011;2010;48.194;16.394;2023-03-01T06:31:21;45.90;;;28.10;;
3991;SDS011;2010;48.194;16.394;2023-03-01T06:33:56;46.10;;;27.00;;
3991;SDS011;2010;48.194;16.394;2023-03-01T06:36:26;42.83;;;26.17;;
3991;SDS011;2010;48.194;16.394;2023-03-01T06:39:11;51.20;;;26.20;;
3991;SDS011;2010;48.194;16.394;2023-03-01T06:41:46;46.87;;;28.23;;
3991;SDS011;2010;48.194;16.394;2023-03-01T06:44:16;47.10;;;28.10;;
3991;SDS011;2010;48.194;16.394;2023-03-01T06:46:45;40.57;;;25.57;;
3991;SDS011;2010;48.194;16.394;2023-03-01T06:49:17;38.60;;;25.73;;
3991;SDS011;2010;48.194;16.394;2023-03-01T06:51:49;42.30;;;27.60;;
3991;SDS011;2010;48.194;16.394;2023-03-01T06:54:25;43.13;;;25.13;;
3991;SDS011;2010;48.194;16.394;2023-03-01T06:56:54;44.27;;;27.50;;
3991;SDS011;2010;48.194;16.394;2023-03-01T06:59:30;42.17;;;26.30;;
3991;SDS011;2010;48.194;16.394;2023-03-01T07:02:01;42.93;;;26.13;;
3991;SDS011;2010;48.194;16.394;2023-03-01T07:04:32;40.27;;;25.90;;
3991;SDS011;2010;48.194;16.394;2023-03-01T07:07:10;38.23;;;26.70;;
3991;SDS011;2010;48.194;16.394;2023-03-01T07:09:49;39.03;;;25.73;;
3991;SDS011;2010;48.194;16.394;2023-03-01T07:12:20;45.87;;;26.43;;
3991;SDS011;2010;48.194;16.394;2023-03-01T07:14:53;47.87;;;25.97;;
3991;SDS011;2010;48.194;16.394;2023-03-01T07:17:29;39.13;;;23.53;;
3991;SDS011;2010;48.194;16.394;2023-03-01T07:20:01;41.80;;;27.47;;
3991;SDS011;2010;48.194;16.394;2023-03-01T07:22:32;44.17;;;27.30;;
3991;SDS011;2010;48.194;16.394;2023-03-01T07:25:16;41.23;;;26.97;;
3991;SDS011;2010;48.194;16.394;2023-03-01T07:27:49;44.93;;;25.67;;
3991;SDS011;2010;48.194;16.394;2023-03-01T07:30:22;44.87;;;26.90;;
3991;SDS011;2010;48.194;16.394;2023-03-01T07:32:54;45.80;;;25.17;;
3991;SDS011;2010;48.194;16.394;2023-03-01T07:35:32;49.07;;;24.30;;
3991;SDS011;2010;48.194;16.394;2023-03-01T07:38:01;43.70;;;26.93;;
3991;SDS011;2010;48.194;16.394;2023-03-01T07:40:37;47.50;;;25.73;;
3991;SDS011;2010;48.194;16.394;2023-03-01T07:43:09;39.93;;;25.63;;
3991;SDS011;2010;48.194;16.394;2023-03-01T07:45:37;44.13;;;26.60;;
3991;SDS011;2010;48.194;16.394;2023-03-01T07:48:07;45.43;;;27.50;;
3991;SDS011;2010;48.194;16.394;2023-03-01T07:50:35;40.80;;;26.20;;
3991;SDS011;2010;48.194;16.394;2023-03-01T07:53:08;40.53;;;26.13;;
3991;SDS011;2010;48.194;16.394;2023-03-01T07:55:38;40.60;;;25.37;;
3991;SDS011;2010;48.194;16.394;2023-03-01T07:58:10;46.53;;;26.03;;
3991;SDS011;2010;48.194;16.394;2023-03-01T08:00:41;38.40;;;23.23;;
3991;SDS011;2010;48.194;16.394;2023-03-01T08:03:10;39.50;;;25.57;;
3991;SDS011;2010;48.194;16.394;2023-03-01T08:05:40;38.50;;;24.43;;
3991;SDS011;2010;48.194;16.394;2023-03-01T08:08:13;41.10;;;26.07;;
3991;SDS011;2010;48.194;16.394;2023-03-01T08:10:49;47.40;;;25.70;;
3991;SDS011;2010;48.194;16.394;2023-03-01T08:13:21;41.23;;;26.10;;
3991;SDS011;2010;48.194;16.394;2023-03-01T08:16:01;44.10;;;26.07;;
3991;SDS011;2010;48.194;16.394;2023-03-01T08:18:31;40.17;;;25.00;;
3991;SDS011;2010;48.194;16.394;2023-03-01T08:21:03;41.93;;;24.50;;
3991;SDS011;2010;48.194;16.394;2023-03-01T08:23:33;51.93;;;27.40;;
3991;SDS011;2010;48.194;16.394;2023-03-01T08:26:14;44.43;;;25.60;;
3991;SDS011;2010;48.194;16.394;2023-03-01T08:28:47;42.07;;;24.63;;
3991;SDS011;2010;48.194;16.394;2023-03-01T08:31:17;39.47;;;25.10;;
3991;SDS011;2010;48.194;16.394;2023-03-01T08:33:55;44.10;;;25.63;;
3991;SDS011;2010;48.194;16.394;2023-03-01T08:36:26;41.97;;;25.73;;
3991;SDS011;2010;48.194;16.394;2023-03-01T08:38:58;42.77;;;27.40;;
3991;SDS011;2010;48.194;16.394;2023-03-01T08:41:35;41.47;;;26.33;;
3991;SDS011;2010;48.194;16.394;2023-03-01T08:44:05;36.87;;;25.73;;
3991;SDS011;2010;48.194;16.394;2023-03-01T08:46:34;42.33;;;26.47;;
3991;SDS011;2010;48.194;16.394;2023-03-01T08:49:14;43.80;;;27.30;;
3991;SDS011;2010;48.194;16.394;2023-03-01T08:51:51;41.97;;;26.73;;
3991;SDS011;2010;48.194;16.394;2023-03-01T08:54:22;41.37;;;25.33;;
3991;SDS011;2010;48.194;16.394;2023-03-01T08:56:55;42.10;;;27.70;;
3991;SDS011;2010;48.194;16.394;2023-03-01T08:59:28;39.23;;;26.40;;
3991;SDS011;2010;48.194;16.394;2023-03-01T09:02:05;45.70;;;26.63;;
3991;SDS011;2010;48.194;16.394;2023-03-01T09:04:37;42.80;;;26.30;;
3991;SDS011;2010;48.194;16.394;2023-03-01T09:07:08;45.67;;;26.97;;
3991;SDS011;2010;48.194;16.394;2023-03-01T09:09:40;49.20;;;26.40;;
3991;SDS011;2010;48.194;16.394;2023-03-01T09:12:15;44.50;;;26.87;;
3991;SDS011;2010;48.194;16.394;2023-03-01T09:14:52;38.67;;;25.30;;
3991;SDS011;2010;48.194;16.394;2023-03-01T09:17:20;45.73;;;28.70;;
3991;SDS011;2010;48.194;16.394;2023-03-01T09:19:53;42.37;;;27.77;;
3991;SDS011;2010;48.194;16.394;2023-03-01T09:22:32;41.30;;;26.33;;
3991;SDS011;2010;48.194;16.394;2023-03-01T09:25:05;40.90;;;26.40;;
3991;SDS011;2010;48.194;16.394;2023-03-01T09:27:49;44.67;;;27.37;;
3991;SDS011;2010;48.194;16.394;2023-03-01T09:30:23;39.10;;;22.33;;
3991;SDS011;2010;48.194;16.394;2023-03-01T09:32:57;37.37;;;22.33;;
3991;SDS011;2010;48.194;16.394;2023-03-01T09:35:27;32.30;;;23.03;;
3991;SDS011;2010;48.194;16.394;2023-03-01T09:37:56;36.97;;;23.13;;
3991;SDS011;2010;48.194;16.394;2023-03-01T09:40:44;40.67;;;23.17;;
3991;SDS011;2010;48.194;16.394;2023-03-01T09:43:28;35.70;;;21.20;;
3991;SDS011;2010;48.194;16.394;2023-03-01T09:46:04;33.80;;;21.07;;
3991;SDS011;2010;48.194;16.394;2023-03-01T09:48:38;35.80;;;21.60;;
3991;SDS011;2010;48.194;16.394;2023-03-01T09:51:14;36.93;;;22.50;;
3991;SDS011;2010;48.194;16.394;2023-03-01T09:53:51;35.50;;;22.73;;
3991;SDS011;2010;48.194;16.394;2023-03-01T09:56:26;34.17;;;24.03;;
3991;SDS011;2010;48.194;16.394;2023-03-01T09:59:11;36.50;;;24.93;;
3991;SDS011;2010;48.194;16.394;2023-03-01T10:01:51;34.70;;;21.50;;
3991;SDS011;2010;48.194;16.394;2023-03-01T10:04:26;34.27;;;21.77;;
3991;SDS011;2010;48.194;16.394;2023-03-01T10:07:14;32.60;;;21.17;;
3991;SDS011;2010;48.194;16.394;2023-03-01T10:09:54;30.40;;;22.47;;
3991;SDS011;2010;48.194;16.394;2023-03-01T10:12:26;37.90;;;23.03;;
3991;SDS011;2010;48.194;16.394;2023-03-01T10:15:02;35.30;;;22.47;;
3991;SDS011;2010;48.194;16.394;2023-03-01T10:17:35;31.30;;;21.50;;
3991;SDS011;2010;48.194;16.394;2023-03-01T10:23:02;25.90;;;19.07;;
3991;SDS011;2010;48.194;16.394;2023-03-01T10:25:44;31.30;;;21.07;;
3991;SDS011;2010;48.194;16.394;2023-03-01T10:28:23;34.77;;;20.93;;
3991;SDS011;2010;48.194;16.394;2023-03-01T10:31:07;33.63;;;22.23;;
3991;SDS011;2010;48.194;16.394;2023-03-01T10:33:44;28.37;;;21.20;;
3991;SDS011;2010;48.194;16.394;2023-03-01T10:36:19;32.50;;;20.77;;
3991;SDS011;2010;48.194;16.394;2023-03-01T10:38:50;47.30;;;26.80;;
3991;SDS011;2010;48.194;16.394;2023-03-01T10:41:22;48.90;;;31.90;;
3991;SDS011;2010;48.194;16.394;2023-03-01T10:43:57;46.83;;;29.87;;
3991;SDS011;2010;48.194;16.394;2023-03-01T10:46:49;34.60;;;23.70;;
3991;SDS011;2010;48.194;16.394;2023-03-01T10:49:29;33.00;;;21.77;;
3991;SDS011;2010;48.194;16.394;2023-03-01T10:52:18;30.60;;;22.40;;
3991;SDS011;2010;48.194;16.394;2023-03-01T10:54:54;29.77;;;20.37;;
3991;SDS011;2010;48.194;16.394;2023-03-01T10:57:36;31.50;;;20.87;;
3991;SDS011;2010;48.194;16.394;2023-03-01T11:08:51;32.10;;;21.63;;
3991;SDS011;2010;48.194;16.394;2023-03-01T11:11:22;33.20;;;21.33;;
3991;SDS011;2010;48.194;16.394;2023-03-01T11:13:54;35.67;;;24.70;;
3991;SDS011;2010;48.194;16.394;2023-03-01T11:16:36;37.47;;;23.83;;
3991;SDS011;2010;48.194;16.394;2023-03-01T11:19:20;39.53;;;23.77;;
3991;SDS011;2010;48.194;16.394;2023-03-01T11:21:55;34.47;;;23.13;;
3991;SDS011;2010;48.194;16.394;2023-03-01T11:24:34;35.67;;;22.50;;
3991;SDS011;2010;48.194;16.394;2023-03-01T11:27:16;32.60;;;21.80;;
3991;SDS011;2010;48.194;16.394;2023-03-01T11:29:50;31.13;;;22.43;;
3991;SDS011;2010;48.194;16.394;2023-03-01T11:32:23;29.90;;;20.60;;
3991;SDS011;2010;48.194;16.394;2023-03-01T11:35:08;32.10;;;22.47;;
3991;SDS011;2010;48.194;16.394;2023-03-01T11:37:44;28.60;;;19.80;;
3991;SDS011;2010;48.194;16.394;2023-03-01T11:40:27;31.60;;;19.80;;
3991;SDS011;2010;48.194;16.394;2023-03-01T11:43:02;25.87;;;18.33;;
3991;SDS011;2010;48.194;16.394;2023-03-01T11:45:47;33.70;;;20.27;;
3991;SDS011;2010;48.194;16.394;2023-03-01T11:48:54;25.90;;;18.90;;
3991;SDS011;2010;48.194;16.394;2023-03-01T11:51:38;24.73;;;19.63;;
3991;SDS011;2010;48.194;16.394;2023-03-01T11:54:18;30.53;;;19.93;;
3991;SDS011;2010;48.194;16.394;2023-03-01T11:56:57;29.13;;;20.03;;
3991;SDS011;2010;48.194;16.394;2023-03-01T12:06:02;23.27;;;16.90;;
3991;SDS011;2010;48.194;16.394;2023-03-01T12:08:40;24.43;;;17.43;;
3991;SDS011;2010;48.194;16.394;2023-03-01T12:11:13;23.13;;;17.40;;
3991;SDS011;2010;48.194;16.394;2023-03-01T12:17:05;24.53;;;18.13;;
3991;SDS011;2010;48.194;16.394;2023-03-01T12:20:05;34.20;;;19.20;;
3991;SDS011;2010;48.194;16.394;2023-03-01T12:22:59;28.23;;;19.17;;
3991;SDS011;2010;48.194;16.394;2023-03-01T12:25:53;27.13;;;18.60;;
3991;SDS011;2010;48.194;16.394;2023-03-01T12:28:39;21.77;;;17.13;;
3991;SDS011;2010;48.194;16.394;2023-03-01T12:34:28;27.33;;;19.53;;
3991;SDS011;2010;48.194;16.394;2023-03-01T12:37:31;27.73;;;20.23;;
3991;SDS011;2010;48.194;16.394;2023-03-01T12:46:14;23.67;;;17.50;;
3991;SDS011;2010;48.194;16.394;2023-03-01T12:48:51;22.53;;;17.00;;
3991;SDS011;2010;48.194;16.394;2023-03-01T12:51:26;26.83;;;19.40;;
3991;SDS011;2010;48.194;16.394;2023-03-01T12:54:01;28.87;;;18.07;;
3991;SDS011;2010;48.194;16.394;2023-03-01T12:56:35;26.57;;;17.80;;
3991;SDS011;2010;48.194;16.394;2023-03-01T12:59:21;22.60;;;17.53;;
3991;SDS011;2010;48.194;16.394;2023-03-01T13:01:56;25.90;;;19.03;;
3991;SDS011;2010;48.194;16.394;2023-03-01T13:04:35;27.37;;;18.80;;
3991;SDS011;2010;48.194;16.394;2023-03-01T13:07:18;25.63;;;19.30;;
3991;SDS011;2010;48.194;16.394;2023-03-01T13:10:00;24.67;;;18.00;;
3991;SDS011;2010;48.194;16.394;2023-03-01T13:13:10;25.67;;;18.07;;
3991;SDS011;2010;48.194;16.394;2023-03-01T13:15:55;28.80;;;18.80;;
3991;SDS011;2010;48.194;16.394;2023-03-01T13:18:33;25.63;;;17.83;;
3991;SDS011;2010;48.194;16.394;2023-03-01T13:21:04;23.20;;;17.60;;
3991;SDS011;2010;48.194;16.394;2023-03-01T13:23:36;25.20;;;17.87;;
3991;SDS011;2010;48.194;16.394;2023-03-01T13:26:14;23.10;;;16.23;;
3991;SDS011;2010;48.194;16.394;2023-03-01T13:28:53;24.73;;;17.20;;
3991;SDS011;2010;48.194;16.394;2023-03-01T13:34:53;23.53;;;17.83;;
3991;SDS011;2010;48.194;16.394;2023-03-01T13:37:31;21.43;;;16.37;;
3991;SDS011;2010;48.194;16.394;2023-03-01T13:46:14;24.00;;;17.67;;
3991;SDS011;2010;48.194;16.394;2023-03-01T13:48:53;23.70;;;16.57;;
3991;SDS011;2010;48.194;16.394;2023-03-01T13:51:30;24.53;;;18.40;;
3991;SDS011;2010;48.194;16.394;2023-03-01T13:54:01;20.17;;;16.20;;
3991;SDS011;2010;48.194;16.394;2023-03-01T13:56:33;23.43;;;16.80;;
3991;SDS011;2010;48.194;16.394;2023-03-01T13:59:05;24.57;;;17.37;;
3991;SDS011;2010;48.194;16.394;2023-03-01T14:01:52;23.03;;;17.40;;
3991;SDS011;2010;48.194;16.394;2023-03-01T14:04:25;23.63;;;17.87;;
3991;SDS011;2010;48.194;16.394;2023-03-01T14:07:11;22.80;;;17.30;;
3991;SDS011;2010;48.194;16.394;2023-03-01T14:09:44;26.63;;;18.03;;
3991;SDS011;2010;48.194;16.394;2023-03-01T14:12:21;21.63;;;17.33;;
3991;SDS011;2010;48.194;16.394;2023-03-01T14:15:13;22.43;;;17.83;;
3991;SDS011;2010;48.194;16.394;2023-03-01T14:17:50;19.50;;;16.43;;
3991;SDS011;2010;48.194;16.394;2023-03-01T14:20:25;19.90;;;16.03;;
3991;SDS011;2010;48.194;16.394;2023-03-01T14:22:59;21.70;;;16.50;;
3991;SDS011;2010;48.194;16.394;2023-03-01T14:25:30;26.23;;;18.90;;
3991;SDS011;2010;48.194;16.394;2023-03-01T14:28:13;25.63;;;16.80;;
3991;SDS011;2010;48.194;16.394;2023-03-01T14:30:48;27.50;;;18.53;;
3991;SDS011;2010;48.194;16.394;2023-03-01T14:33:23;28.50;;;16.63;;
3991;SDS011;2010;48.194;16.394;2023-03-01T14:35:59;22.70;;;17.57;;
3991;SDS011;2010;48.194;16.394;2023-03-01T14:38:37;27.23;;;18.17;;
3991;SDS011;2010;48.194;16.394;2023-03-01T14:41:08;29.20;;;17.97;;
3991;SDS011;2010;48.194;16.394;2023-03-01T14:43:44;26.13;;;18.70;;
3991;SDS011;2010;48.194;16.394;2023-03-01T14:46:17;25.53;;;18.90;;
3991;SDS011;2010;48.194;16.394;2023-03-01T14:48:50;24.87;;;18.80;;
3991;SDS011;2010;48.194;16.394;2023-03-01T14:51:20;26.40;;;18.13;;
3991;SDS011;2010;48.194;16.394;2023-03-01T14:53:54;25.70;;;18.63;;
3991;SDS011;2010;48.194;16.394;2023-03-01T14:56:24;25.60;;;19.40;;
3991;SDS011;2010;48.194;16.394;2023-03-01T14:58:53;28.33;;;19.97;;
3991;SDS011;2010;48.194;16.394;2023-03-01T15:01:32;26.03;;;20.83;;
3991;SDS011;2010;48.194;16.394;2023-03-01T15:04:04;31.27;;;20.83;;
3991;SDS011;2010;48.194;16.394;2023-03-01T15:06:35;29.57;;;21.10;;
3991;SDS011;2010;48.194;16.394;2023-03-01T15:09:12;28.10;;;21.13;;
3991;SDS011;2010;48.194;16.394;2023-03-01T15:11:46;30.50;;;20.53;;
3991;SDS011;2010;48.194;16.394;2023-03-01T15:17:30;24.90;;;19.20;;
3991;SDS011;2010;48.194;16.394;2023-03-01T15:20:15;29.57;;;19.80;;
3991;SDS011;2010;48.194;16.394;2023-03-01T15:22:54;25.47;;;19.07;;
3991;SDS011;2010;48.194;16.394;2023-03-01T15:25:44;25.30;;;18.13;;
3991;SDS011;2010;48.194;16.394;2023-03-01T15:28:25;24.80;;;18.27;;
3991;SDS011;2010;48.194;16.394;2023-03-01T15:31:11;23.97;;;18.67;;
3991;SDS011;2010;48.194;16.394;2023-03-01T15:34:07;27.93;;;19.73;;
3991;SDS011;2010;48.194;16.394;2023-03-01T15:36:43;25.70;;;17.77;;
3991;SDS011;2010;48.194;16.394;2023-03-01T15:39:35;27.87;;;19.27;;
3991;SDS011;2010;48.194;16.394;2023-03-01T15:45:09;27.10;;;20.13;;
3991;SDS011;2010;48.194;16.394;2023-03-01T15:47:50;27.73;;;20.20;;
3991;SDS011;2010;48.194;16.394;2023-03-01T15:50:29;28.50;;;19.77;;
3991;SDS011;2010;48.194;16.394;2023-03-01T15:53:01;27.33;;;19.67;;
3991;SDS011;2010;48.194;16.394;2023-03-01T15:55:34;23.37;;;18.97;;
3991;SDS011;2010;48.194;16.394;2023-03-01T15:58:12;26.70;;;19.90;;
3991;SDS011;2010;48.194;16.394;2023-03-01T16:00:46;27.37;;;20.00;;
3991;SDS011;2010;48.194;16.394;2023-03-01T16:03:29;30.67;;;21.20;;
3991;SDS011;2010;48.194;16.394;2023-03-01T16:06:01;27.67;;;21.10;;
3991;SDS011;2010;48.194;16.394;2023-03-01T16:08:31;29.97;;;19.90;;
3991;SDS011;2010;48.194;16.394;2023-03-01T16:11:00;27.20;;;18.50;;
3991;SDS011;2010;48.194;16.394;2023-03-01T16:13:37;26.53;;;19.10;;